createdAt,value
2019-04-16T00:02:01.970Z,12.29
2019-04-16T00:04:53.734Z,12.00
2019-04-16T00:07:39.129Z,12.37
2019-04-16T00:10:28.552Z,11.14
2019-04-16T00:13:02.990Z,11.68
2019-04-16T00:15:30.790Z,12.40
2019-04-16T00:17:58.509Z,12.24
2019-04-16T00:20:26.277Z,12.19
2019-04-16T00:22:59.546Z,12.51
2019-04-16T00:25:27.266Z,12.66
2019-04-16T00:27:59.526Z,13.16
2019-04-16T00:30:24.438Z,12.70
2019-04-16T00:32:52.131Z,12.53
2019-04-16T00:35:19.899Z,12.69
2019-04-16T00:37:51.394Z,12.16
2019-04-16T00:40:17.047Z,11.37
2019-04-16T00:42:44.771Z,12.71
2019-04-16T00:45:12.511Z,11.90
2019-04-16T00:47:40.226Z,13.10
2019-04-16T00:50:07.958Z,11.85
2019-04-16T00:52:36.991Z,12.56
2019-04-16T00:55:05.285Z,12.15
2019-04-16T00:57:33.046Z,11.69
2019-04-16T01:00:00.830Z,11.71
2019-04-16T01:02:29.331Z,11.22
2019-04-16T01:04:57.037Z,11.99
2019-04-16T01:07:24.782Z,11.56
2019-04-16T01:09:52.492Z,12.01
2019-04-16T01:12:20.250Z,11.51
2019-04-16T01:14:47.955Z,11.94
2019-04-16T01:17:15.674Z,11.50
2019-04-16T01:19:43.379Z,11.10
2019-04-16T01:22:15.770Z,12.45
2019-04-16T01:24:40.554Z,12.09
2019-04-16T01:27:09.962Z,12.06
2019-04-16T01:29:37.770Z,11.90
2019-04-16T01:32:23.953Z,12.48
2019-04-16T01:35:22.708Z,11.31
2019-04-16T01:38:01.328Z,12.97
2019-04-16T01:41:00.631Z,12.13
2019-04-16T01:43:28.338Z,11.68
2019-04-16T01:46:00.822Z,11.41
2019-04-16T01:48:25.535Z,12.18
2019-04-16T01:50:53.319Z,11.74
2019-04-16T01:53:21.710Z,11.63
2019-04-16T01:55:49.574Z,12.08
2019-04-16T01:58:17.347Z,12.48
2019-04-16T02:00:48.450Z,12.46
2019-04-16T02:03:17.808Z,12.23
2019-04-16T02:05:45.625Z,11.82
2019-04-16T02:08:13.671Z,12.67
2019-04-16T02:10:41.398Z,12.09
2019-04-16T02:13:09.117Z,11.81
2019-04-16T02:15:36.818Z,11.62
2019-04-16T02:18:04.533Z,11.91
2019-04-16T02:20:32.271Z,12.13
2019-04-16T02:22:59.977Z,11.64
2019-04-16T02:25:27.746Z,11.87
2019-04-16T02:27:56.994Z,11.83
2019-04-16T02:30:24.911Z,12.00
2019-04-16T02:32:52.676Z,12.36
2019-04-16T02:35:20.392Z,12.06
2019-04-16T02:37:49.199Z,12.56
2019-04-16T02:40:19.151Z,12.96
2019-04-16T02:42:46.534Z,13.39
2019-04-16T02:45:14.259Z,12.90
2019-04-16T02:47:42.487Z,12.78
2019-04-16T02:50:14.179Z,12.64
2019-04-16T02:52:51.312Z,12.55
2019-04-16T02:55:29.017Z,13.16
2019-04-16T02:58:16.014Z,12.29
2019-04-16T03:01:20.402Z,12.16
2019-04-16T03:03:55.408Z,12.28
2019-04-16T03:06:20.875Z,13.12
2019-04-16T03:08:48.594Z,12.89
2019-04-16T03:11:18.018Z,12.79
2019-04-16T03:13:45.854Z,12.95
2019-04-16T03:16:38.774Z,12.61
2019-04-16T03:19:10.710Z,11.84
2019-04-16T03:21:38.843Z,12.88
2019-04-16T03:24:09.307Z,12.53
2019-04-16T03:26:35.999Z,11.38
2019-04-16T03:29:03.735Z,10.22
2019-04-16T03:31:31.490Z,11.87
2019-04-16T03:33:59.331Z,12.93
2019-04-16T03:36:29.581Z,12.06
2019-04-16T03:38:56.523Z,12.57
2019-04-16T03:41:25.893Z,12.23
2019-04-16T03:43:53.592Z,11.71
2019-04-16T03:46:21.318Z,11.44
2019-04-16T03:48:49.090Z,12.15
2019-04-16T03:51:17.038Z,12.25
2019-04-16T03:53:46.491Z,12.15
2019-04-16T03:56:14.298Z,12.40
2019-04-16T03:58:42.007Z,12.74
2019-04-16T04:01:09.722Z,12.55
2019-04-16T04:03:37.431Z,12.01
2019-04-16T04:06:06.983Z,12.24
2019-04-16T04:08:34.592Z,12.15
2019-04-16T04:11:02.326Z,11.96
2019-04-16T04:13:30.101Z,11.66
2019-04-16T04:15:58.597Z,12.47
2019-04-16T04:18:27.607Z,12.14
2019-04-16T04:20:55.375Z,12.01
2019-04-16T04:23:25.532Z,11.78
2019-04-16T04:25:54.999Z,11.65
2019-04-16T04:28:22.712Z,11.03
2019-04-16T04:30:50.407Z,11.32
2019-04-16T04:33:43.075Z,12.14
2019-04-16T04:36:09.505Z,11.22
2019-04-16T04:38:38.256Z,11.80
2019-04-16T04:41:06.393Z,11.97
2019-04-16T04:43:34.131Z,12.35
2019-04-16T04:46:01.939Z,12.76
2019-04-16T04:48:30.934Z,12.40
2019-04-16T04:50:58.715Z,12.45
2019-04-16T04:53:26.560Z,13.20
2019-04-16T04:55:57.024Z,12.99
2019-04-16T04:58:24.172Z,13.09
2019-04-16T05:00:51.995Z,13.26
2019-04-16T05:03:44.372Z,13.52
2019-04-16T05:06:14.635Z,11.64
2019-04-16T05:08:42.417Z,11.87
2019-04-16T05:11:12.553Z,12.95
2019-04-16T05:13:39.595Z,13.44
2019-04-16T05:16:07.346Z,13.17
2019-04-16T05:18:35.124Z,12.64
2019-04-16T05:21:03.135Z,13.30
2019-04-16T05:23:30.923Z,13.64
2019-04-16T05:25:58.650Z,12.78
2019-04-16T05:28:26.447Z,13.49
2019-04-16T05:30:54.229Z,13.12
2019-04-16T05:33:21.981Z,12.84
2019-04-16T05:35:49.755Z,13.36
2019-04-16T05:38:17.467Z,13.20
2019-04-16T05:40:45.186Z,13.83
2019-04-16T05:43:12.902Z,14.47
2019-04-16T05:45:40.658Z,13.45
2019-04-16T05:48:08.425Z,13.49
2019-04-16T05:50:36.131Z,14.11
2019-04-16T05:53:05.455Z,12.71
2019-04-16T05:55:38.414Z,13.90
2019-04-16T05:58:06.129Z,14.38
2019-04-16T06:00:58.786Z,13.29
2019-04-16T06:03:26.626Z,14.58
2019-04-16T06:05:56.322Z,14.14
2019-04-16T06:08:23.999Z,14.95
2019-04-16T06:10:52.038Z,15.22
2019-04-16T06:13:33.485Z,14.69
2019-04-16T06:16:23.666Z,15.80
2019-04-16T06:19:08.544Z,15.32
2019-04-16T06:22:03.270Z,15.28
2019-04-16T06:24:47.197Z,15.55
2019-04-16T06:27:32.782Z,17.56
2019-04-16T06:30:14.811Z,16.61
2019-04-16T06:33:01.847Z,15.24
2019-04-16T06:35:58.174Z,14.60
2019-04-16T06:38:36.911Z,14.17
2019-04-16T06:41:24.062Z,14.49
2019-04-16T06:43:58.171Z,13.78
2019-04-16T06:46:32.015Z,14.11
2019-04-16T06:49:27.922Z,14.18
2019-04-16T06:52:16.579Z,13.73
2019-04-16T06:55:03.550Z,13.35
2019-04-16T06:57:56.167Z,13.88
2019-04-16T07:00:41.981Z,13.46
2019-04-16T07:03:35.271Z,12.94
2019-04-16T07:06:40.171Z,13.02
2019-04-16T07:09:25.191Z,12.34
2019-04-16T07:11:54.902Z,12.53
2019-04-16T07:14:22.915Z,12.05
2019-04-16T07:16:50.688Z,12.37
2019-04-16T07:19:18.402Z,12.62
2019-04-16T07:21:48.654Z,13.24
2019-04-16T07:24:15.654Z,12.45
2019-04-16T07:26:46.878Z,12.02
2019-04-16T07:29:23.052Z,12.21
2019-04-16T07:31:57.242Z,12.48
2019-04-16T07:34:38.082Z,12.19
2019-04-16T07:37:24.914Z,13.23
2019-04-16T07:40:01.921Z,13.00
2019-04-16T07:42:50.991Z,12.19
2019-04-16T07:45:23.059Z,12.44
2019-04-16T07:48:01.843Z,12.80
2019-04-16T07:50:54.679Z,13.61
2019-04-16T07:53:41.726Z,14.19
2019-04-16T07:56:14.903Z,13.16
2019-04-16T07:58:42.635Z,13.47
2019-04-16T08:01:12.683Z,13.22
2019-04-16T08:03:39.824Z,12.96
2019-04-16T08:06:07.552Z,11.95
2019-04-16T08:08:35.539Z,12.13
2019-04-16T08:11:03.359Z,12.04
2019-04-16T08:13:33.625Z,11.87
2019-04-16T08:16:05.817Z,12.81
2019-04-16T08:18:33.184Z,12.71
2019-04-16T08:21:06.197Z,13.13
2019-04-16T08:23:39.262Z,14.69
2019-04-16T08:26:11.494Z,14.48
2019-04-16T08:28:37.029Z,14.03
2019-04-16T08:31:10.490Z,13.82
2019-04-16T08:33:34.896Z,13.78
2019-04-16T08:36:02.591Z,13.16
2019-04-16T08:38:34.064Z,13.22
2019-04-16T08:40:59.770Z,13.71
2019-04-16T08:43:29.623Z,13.16
2019-04-16T08:45:58.211Z,13.55
2019-04-16T08:48:25.934Z,13.01
2019-04-16T08:50:57.909Z,12.99
2019-04-16T08:53:23.175Z,13.31
2019-04-16T08:55:50.898Z,13.85
2019-04-16T08:58:18.751Z,14.36
2019-04-16T09:00:48.402Z,14.61
2019-04-16T09:03:16.119Z,14.75
2019-04-16T09:05:43.838Z,14.23
2019-04-16T09:08:24.284Z,14.17
2019-04-16T09:10:52.324Z,14.11
2019-04-16T09:13:22.598Z,14.55
2019-04-16T09:15:54.711Z,14.44
2019-04-16T09:18:36.673Z,14.29
2019-04-16T09:21:06.919Z,14.59
2019-04-16T09:23:33.903Z,14.40
2019-04-16T09:26:14.820Z,14.51
2019-04-16T09:28:56.959Z,14.33
2019-04-16T09:31:42.694Z,13.59
2019-04-16T09:34:39.452Z,13.97
2019-04-16T09:37:28.629Z,14.80
2019-04-16T09:40:36.809Z,14.40
2019-04-16T09:43:16.502Z,13.93
2019-04-16T09:45:38.008Z,14.11
2019-04-16T09:48:06.213Z,14.03
2019-04-16T09:50:33.939Z,14.16
2019-04-16T09:53:12.327Z,14.53
2019-04-16T09:55:40.194Z,14.13
2019-04-16T09:58:21.242Z,13.85
2019-04-16T10:00:52.752Z,13.75
2019-04-16T10:03:30.479Z,13.67
2019-04-16T10:05:58.439Z,13.72
2019-04-16T10:08:29.167Z,13.73
2019-04-16T10:10:58.107Z,14.48
2019-04-16T10:13:31.777Z,14.96
2019-04-16T10:15:56.151Z,14.08
2019-04-16T10:18:24.196Z,14.22
2019-04-16T10:20:52.024Z,14.86
2019-04-16T10:23:27.359Z,15.14
2019-04-16T10:25:55.143Z,14.89
2019-04-16T10:28:26.273Z,15.08
2019-04-16T10:30:55.235Z,14.98
2019-04-16T10:33:23.017Z,15.27
2019-04-16T10:35:50.803Z,14.64
2019-04-16T10:38:35.416Z,14.84
2019-04-16T10:41:06.159Z,14.91
2019-04-16T10:44:02.281Z,15.52
2019-04-16T10:46:51.708Z,15.77
2019-04-16T10:49:38.555Z,15.64
2019-04-16T10:52:37.322Z,15.72
2019-04-16T10:55:27.026Z,15.38
2019-04-16T10:58:17.227Z,15.28
2019-04-16T11:01:04.088Z,15.99
2019-04-16T11:03:37.269Z,16.14
2019-04-16T11:06:13.838Z,16.14
2019-04-16T11:08:41.609Z,15.56
2019-04-16T11:11:09.314Z,15.57
2019-04-16T11:13:42.769Z,15.40
2019-04-16T11:16:15.377Z,15.27
2019-04-16T11:18:43.191Z,15.76
2019-04-16T11:21:11.543Z,15.41
2019-04-16T11:23:39.390Z,15.41
2019-04-16T11:26:07.361Z,15.51
2019-04-16T11:28:35.237Z,15.21
2019-04-16T11:31:06.815Z,15.82
2019-04-16T11:33:34.676Z,16.21
2019-04-16T11:36:17.386Z,16.24
2019-04-16T11:38:36.712Z,16.26
2019-04-16T11:41:05.031Z,16.57
2019-04-16T11:43:32.861Z,16.11
2019-04-16T11:46:00.580Z,15.62
2019-04-16T11:48:28.468Z,15.92
2019-04-16T11:50:56.243Z,16.17
2019-04-16T11:53:24.063Z,16.38
2019-04-16T11:55:51.857Z,16.79
2019-04-16T11:58:31.958Z,17.01
2019-04-16T12:01:18.878Z,16.26
2019-04-16T12:03:50.899Z,16.07
2019-04-16T12:06:28.667Z,16.10
2019-04-16T12:09:25.010Z,15.98
2019-04-16T12:11:59.807Z,16.68
2019-04-16T12:14:42.150Z,16.51
2019-04-16T12:17:24.879Z,16.63
2019-04-16T12:20:29.894Z,16.71
2019-04-16T12:23:18.073Z,16.56
2019-04-16T12:26:00.898Z,16.85
2019-04-16T12:28:56.057Z,17.05
2019-04-16T12:34:51.318Z,16.76
2019-04-16T12:37:28.522Z,16.90
2019-04-16T12:40:19.575Z,16.99
2019-04-16T12:43:16.022Z,17.30
2019-04-16T12:45:53.277Z,17.47
2019-04-16T12:48:26.224Z,17.67
2019-04-16T12:51:13.131Z,17.75
2019-04-16T12:53:53.424Z,17.04
2019-04-16T12:56:41.372Z,16.89
2019-04-16T12:59:15.345Z,16.92
2019-04-16T13:02:12.511Z,17.40
2019-04-16T13:05:00.847Z,17.28
2019-04-16T13:07:52.198Z,17.24
2019-04-16T13:10:42.460Z,17.52
2019-04-16T13:13:43.671Z,17.30
2019-04-16T13:16:20.811Z,17.70
2019-04-16T13:19:02.130Z,17.58
2019-04-16T13:21:33.279Z,17.33
2019-04-16T13:24:05.433Z,17.71
2019-04-16T13:26:36.090Z,17.87
2019-04-16T13:29:07.310Z,18.00
2019-04-16T13:31:36.390Z,18.04
2019-04-16T13:34:04.595Z,17.62
2019-04-16T13:36:32.428Z,17.65
2019-04-16T13:39:17.865Z,17.58
2019-04-16T13:41:47.932Z,17.74
2019-04-16T13:44:22.424Z,17.78
2019-04-16T13:46:47.762Z,17.73
2019-04-16T13:49:24.086Z,17.78
2019-04-16T13:51:49.847Z,18.08
2019-04-16T13:54:37.904Z,18.31
2019-04-16T13:57:14.122Z,18.35
2019-04-16T14:00:04.421Z,18.34
2019-04-16T14:02:41.187Z,18.64
2019-04-16T14:05:10.975Z,18.73
2019-04-16T14:07:38.407Z,18.62
2019-04-16T14:10:06.214Z,18.69
2019-04-16T14:12:42.310Z,18.63
2019-04-16T14:15:06.325Z,18.57
2019-04-16T14:17:35.020Z,18.62
2019-04-16T14:20:02.657Z,18.57
2019-04-16T14:22:31.649Z,18.91
2019-04-16T14:25:17.516Z,18.82
2019-04-16T14:27:45.215Z,18.46
2019-04-16T14:30:16.298Z,18.56
2019-04-16T14:32:44.034Z,18.76
2019-04-16T14:35:32.421Z,18.21
2019-04-16T14:37:48.237Z,18.10
2019-04-16T14:40:22.511Z,18.60
2019-04-16T14:42:56.258Z,18.36
2019-04-16T14:45:33.076Z,18.60
2019-04-16T14:47:56.967Z,18.74
2019-04-16T14:50:24.812Z,18.93
2019-04-16T14:52:52.522Z,18.41
2019-04-16T14:55:29.926Z,18.84
2019-04-16T14:58:19.687Z,18.95
2019-04-16T15:01:18.427Z,19.15
2019-04-16T15:04:04.190Z,18.96
2019-04-16T15:06:52.736Z,19.21
2019-04-16T15:09:36.299Z,19.26
2019-04-16T15:12:20.546Z,19.37
2019-04-16T15:14:53.520Z,19.36
2019-04-16T15:17:40.995Z,19.31
2019-04-16T15:20:26.666Z,19.38
2019-04-16T15:23:10.771Z,19.24
2019-04-16T15:25:51.972Z,19.34
2019-04-16T15:28:23.506Z,19.37
2019-04-16T15:31:02.810Z,19.06
2019-04-16T15:33:49.883Z,19.26
2019-04-16T15:36:27.339Z,19.25
2019-04-16T15:39:14.366Z,19.41
2019-04-16T15:42:19.500Z,19.58
2019-04-16T15:45:08.977Z,19.36
2019-04-16T15:57:36.125Z,19.33
2019-04-16T16:00:17.934Z,19.42
2019-04-16T16:03:07.945Z,19.52
2019-04-16T16:05:52.262Z,19.54
2019-04-16T16:08:35.837Z,19.49
2019-04-16T16:11:07.970Z,19.38
2019-04-16T16:13:36.245Z,18.98
2019-04-16T16:16:04.760Z,19.41
2019-04-16T16:18:32.776Z,19.39
2019-04-16T16:21:04.755Z,19.81
2019-04-16T16:26:47.907Z,20.07
2019-04-16T16:29:14.440Z,19.93
2019-04-16T16:31:42.385Z,19.96
2019-04-16T16:34:10.310Z,19.92
2019-04-16T16:36:40.866Z,19.82
2019-04-16T16:39:35.578Z,19.88
2019-04-16T16:42:03.527Z,19.93
2019-04-16T16:44:35.433Z,19.85
2019-04-16T16:47:24.877Z,19.46
2019-04-16T16:49:53.310Z,19.92
2019-04-16T16:52:38.924Z,19.97
2019-04-16T16:55:09.635Z,20.01
2019-04-16T16:57:46.850Z,20.03
2019-04-16T17:00:24.029Z,20.07
2019-04-16T17:02:56.865Z,20.03
2019-04-16T17:05:30.762Z,20.05
2019-04-16T17:07:59.788Z,19.99
2019-04-16T17:10:27.563Z,19.96
2019-04-16T17:13:02.373Z,20.04
2019-04-16T17:15:27.675Z,20.04
2019-04-16T17:17:55.568Z,19.96
2019-04-16T17:20:24.242Z,19.92
2019-04-16T17:22:52.269Z,19.90
2019-04-16T17:25:35.258Z,19.88
2019-04-16T17:27:51.722Z,19.85
2019-04-16T17:30:19.049Z,19.85
2019-04-16T17:32:48.514Z,19.72
2019-04-16T17:35:16.301Z,19.48
2019-04-16T17:37:45.537Z,19.66
2019-04-16T17:40:35.434Z,19.72
2019-04-16T17:43:13.854Z,19.65
2019-04-16T17:45:58.007Z,19.00
2019-04-16T17:48:32.989Z,19.59
2019-04-16T17:51:24.374Z,19.61
2019-04-16T17:54:09.422Z,19.48
2019-04-16T17:56:59.138Z,19.45
2019-04-16T17:59:32.411Z,19.47
2019-04-16T18:02:34.900Z,19.55
2019-04-16T18:05:24.702Z,18.91
2019-04-16T18:08:19.477Z,19.35
2019-04-16T18:11:10.698Z,19.17
2019-04-16T18:13:52.125Z,19.22
2019-04-16T18:16:24.583Z,19.06
2019-04-16T18:19:30.928Z,19.07
2019-04-16T18:22:23.530Z,18.98
2019-04-16T18:25:10.557Z,18.83
2019-04-16T18:27:57.607Z,18.68
2019-04-16T18:30:44.544Z,18.71
2019-04-16T18:33:26.789Z,19.08
2019-04-16T18:36:16.999Z,19.43
2019-04-16T18:39:05.546Z,18.87
2019-04-16T18:41:44.646Z,18.65
2019-04-16T18:44:51.355Z,18.58
2019-04-16T18:47:41.994Z,18.48
2019-04-16T18:50:28.117Z,18.34
2019-04-16T18:52:55.527Z,18.57
2019-04-16T18:55:23.306Z,17.81
2019-04-16T18:57:51.102Z,18.53
2019-04-16T19:00:40.078Z,17.75
2019-04-16T19:03:14.534Z,18.28
2019-04-16T19:05:37.458Z,18.33
2019-04-16T19:08:06.611Z,18.31
2019-04-16T19:10:34.460Z,18.46
2019-04-16T19:13:02.293Z,18.35
2019-04-16T19:15:30.126Z,18.26
2019-04-16T19:17:57.910Z,18.24
2019-04-16T19:20:25.756Z,18.18
2019-04-16T19:22:53.565Z,18.25
2019-04-16T19:25:21.403Z,17.99
2019-04-16T19:27:49.238Z,18.14
2019-04-16T19:30:17.441Z,18.12
2019-04-16T19:32:51.278Z,18.08
2019-04-16T19:35:22.339Z,18.24
2019-04-16T19:37:48.157Z,17.78
2019-04-16T19:40:18.822Z,17.56
2019-04-16T19:42:57.786Z,17.93
2019-04-16T19:45:26.654Z,17.79
2019-04-16T19:47:57.677Z,17.94
2019-04-16T19:50:24.126Z,17.69
2019-04-16T19:52:52.003Z,17.94
2019-04-16T19:55:19.902Z,18.25
2019-04-16T19:57:48.017Z,17.65
2019-04-16T20:00:22.072Z,17.49
2019-04-16T20:02:45.720Z,17.33
2019-04-16T20:05:15.422Z,16.57
2019-04-16T20:07:43.123Z,16.12
2019-04-16T20:10:10.890Z,16.33
2019-04-16T20:12:39.823Z,16.51
2019-04-16T20:15:16.908Z,16.32
2019-04-16T20:17:58.037Z,15.99
2019-04-16T20:20:43.399Z,16.43
2019-04-16T20:23:16.147Z,16.52
2019-04-16T20:30:06.233Z,16.87
2019-04-16T20:32:35.095Z,17.01
2019-04-16T20:35:40.147Z,16.84
2019-04-16T20:38:09.140Z,17.14
2019-04-16T20:40:36.965Z,17.32
2019-04-16T20:43:04.841Z,17.01
2019-04-16T20:45:33.249Z,16.67
2019-04-16T20:48:01.082Z,16.69
2019-04-16T20:50:30.234Z,17.01
2019-04-16T20:52:58.173Z,17.04
2019-04-16T20:57:55.259Z,17.19
2019-04-16T21:00:28.335Z,16.16
2019-04-16T21:02:56.334Z,16.67
2019-04-16T21:05:35.893Z,16.55
2019-04-16T21:07:55.237Z,16.71
2019-04-16T21:10:23.146Z,16.80
2019-04-16T21:12:54.642Z,16.93
2019-04-16T21:15:20.636Z,16.98
2019-04-16T21:17:48.826Z,16.79
2019-04-16T21:20:19.277Z,16.81
2019-04-16T21:22:46.182Z,16.83
2019-04-16T21:25:20.432Z,16.73
2019-04-16T21:28:03.250Z,16.33
2019-04-16T21:30:31.553Z,16.85
2019-04-16T21:33:20.407Z,16.62
2019-04-16T21:35:51.461Z,16.39
2019-04-16T21:38:51.032Z,16.48
2019-04-16T21:41:19.564Z,16.38
2019-04-16T21:43:47.516Z,16.63
2019-04-16T21:46:20.125Z,16.38
2019-04-16T21:48:45.280Z,16.20
2019-04-16T21:51:18.949Z,16.23
2019-04-16T21:53:43.363Z,16.46
2019-04-16T21:56:11.483Z,16.31
2019-04-16T21:58:39.361Z,16.32
2019-04-16T22:01:17.125Z,16.50
2019-04-16T22:03:48.117Z,15.90
2019-04-16T22:06:19.888Z,15.80
2019-04-16T22:08:45.549Z,15.98
2019-04-16T22:11:15.203Z,15.88
2019-04-16T22:13:43.188Z,16.02
2019-04-16T22:16:11.130Z,16.65
2019-04-16T22:18:41.613Z,16.73
2019-04-16T22:21:10.952Z,16.08
2019-04-16T22:23:38.487Z,16.29
2019-04-16T22:26:09.969Z,16.15
2019-04-16T22:28:36.192Z,16.44
2019-04-16T22:31:04.212Z,16.16
2019-04-16T22:33:32.129Z,15.90
2019-04-16T22:36:00.134Z,16.37
2019-04-16T22:38:29.781Z,16.42
2019-04-16T22:41:02.851Z,16.70
2019-04-16T22:43:51.985Z,16.40
2019-04-16T22:46:30.539Z,16.42
2019-04-16T22:48:59.189Z,15.68
2019-04-16T22:51:27.374Z,16.29
2019-04-16T22:53:55.441Z,15.97
2019-04-16T22:56:36.060Z,15.90
2019-04-16T22:59:06.637Z,15.75
2019-04-16T23:01:34.946Z,16.18
2019-04-16T23:04:03.173Z,16.01
2019-04-16T23:06:31.126Z,15.99
2019-04-16T23:08:59.439Z,16.28
2019-04-16T23:11:27.864Z,16.36
2019-04-16T23:13:56.002Z,16.54
2019-04-16T23:16:24.223Z,16.19
2019-04-16T23:18:52.097Z,16.61
2019-04-16T23:21:20.259Z,15.49
2019-04-16T23:23:51.426Z,16.10
2019-04-16T23:26:17.997Z,16.12
2019-04-16T23:28:45.873Z,16.05
2019-04-16T23:31:14.448Z,16.16
2019-04-16T23:33:42.264Z,16.17
2019-04-16T23:36:15.004Z,16.48
2019-04-16T23:38:39.681Z,16.40
2019-04-16T23:41:07.516Z,16.24
2019-04-16T23:44:06.573Z,16.47
2019-04-16T23:46:50.017Z,16.23
2019-04-16T23:49:37.023Z,15.93
2019-04-16T23:52:10.595Z,15.96
2019-04-16T23:54:44.007Z,16.23
2019-04-16T23:57:21.642Z,16.06
